sensor_id;sensor_type;location;lat;lon;timestamp;temperature;humidity
26707;DHT22;14319;49.422;10.934;2023-07-28T00:01:07;17.50;99.90
26707;DHT22;14319;49.422;10.934;2023-07-28T00:03:07;17.50;99.90
26707;DHT22;14319;49.422;10.934;2023-07-28T00:05:08;17.50;99.90
26707;DHT22;14319;49.422;10.934;2023-07-28T00:07:08;17.50;99.90
26707;DHT22;14319;49.422;10.934;2023-07-28T00:09:09;17.40;99.90
26707;DHT22;14319;49.422;10.934;2023-07-28T00:11:14;17.40;99.90
26707;DHT22;14319;49.422;10.934;2023-07-28T00:13:15;17.40;99.90
26707;DHT22;14319;49.422;10.934;2023-07-28T00:15:16;17.50;99.90
26707;DHT22;14319;49.422;10.934;2023-07-28T00:17:16;17.40;99.90
26707;DHT22;14319;49.422;10.934;2023-07-28T00:19:17;17.40;99.90
26707;DHT22;14319;49.422;10.934;2023-07-28T00:21:18;17.40;99.90
26707;DHT22;14319;49.422;10.934;2023-07-28T00:23:18;17.30;99.90
26707;DHT22;14319;49.422;10.934;2023-07-28T00:25:19;17.40;99.90
26707;DHT22;14319;49.422;10.934;2023-07-28T00:27:19;17.40;99.90
26707;DHT22;14319;49.422;10.934;2023-07-28T00:29:22;17.40;99.90
26707;DHT22;14319;49.422;10.934;2023-07-28T00:31:23;17.30;99.90
26707;DHT22;14319;49.422;10.934;2023-07-28T00:33:23;17.30;99.90
26707;DHT22;14319;49.422;10.934;2023-07-28T00:35:24;17.30;99.90
26707;DHT22;14319;49.422;10.934;2023-07-28T00:37:24;17.30;99.90
26707;DHT22;14319;49.422;10.934;2023-07-28T00:39:25;17.20;99.90
26707;DHT22;14319;49.422;10.934;2023-07-28T00:41:26;17.20;99.90
26707;DHT22;14319;49.422;10.934;2023-07-28T00:43:26;17.20;99.90
26707;DHT22;14319;49.422;10.934;2023-07-28T00:45:27;17.20;99.90
26707;DHT22;14319;49.422;10.934;2023-07-28T00:47:28;17.30;99.90
26707;DHT22;14319;49.422;10.934;2023-07-28T00:49:29;17.30;99.90
26707;DHT22;14319;49.422;10.934;2023-07-28T00:51:31;17.40;99.90
26707;DHT22;14319;49.422;10.934;2023-07-28T00:53:32;17.40;99.90
26707;DHT22;14319;49.422;10.934;2023-07-28T00:55:33;17.50;99.90
26707;DHT22;14319;49.422;10.934;2023-07-28T00:57:34;17.50;99.90
26707;DHT22;14319;49.422;10.934;2023-07-28T00:59:34;17.50;99.90
26707;DHT22;14319;49.422;10.934;2023-07-28T01:01:35;17.50;99.90
26707;DHT22;14319;49.422;10.934;2023-07-28T01:03:36;17.50;99.90
26707;DHT22;14319;49.422;10.934;2023-07-28T01:05:55;17.40;99.90
26707;DHT22;14319;49.422;10.934;2023-07-28T01:08:06;17.50;99.90
26707;DHT22;14319;49.422;10.934;2023-07-28T01:10:17;17.40;99.90
26707;DHT22;14319;49.422;10.934;2023-07-28T01:12:18;17.40;99.90
26707;DHT22;14319;49.422;10.934;2023-07-28T01:14:19;17.50;99.90
26707;DHT22;14319;49.422;10.934;2023-07-28T01:16:19;17.40;99.90
26707;DHT22;14319;49.422;10.934;2023-07-28T01:18:21;17.60;99.90
26707;DHT22;14319;49.422;10.934;2023-07-28T01:20:24;17.50;99.90
26707;DHT22;14319;49.422;10.934;2023-07-28T01:27:11;17.40;99.90
26707;DHT22;14319;49.422;10.934;2023-07-28T01:29:12;17.40;99.90
26707;DHT22;14319;49.422;10.934;2023-07-28T01:31:15;17.40;99.90
26707;DHT22;14319;49.422;10.934;2023-07-28T01:33:16;17.30;99.90
26707;DHT22;14319;49.422;10.934;2023-07-28T01:35:17;17.30;99.90
26707;DHT22;14319;49.422;10.934;2023-07-28T01:37:17;17.30;99.90
26707;DHT22;14319;49.422;10.934;2023-07-28T01:39:18;17.40;99.90
26707;DHT22;14319;49.422;10.934;2023-07-28T01:41:18;17.50;99.90
26707;DHT22;14319;49.422;10.934;2023-07-28T01:43:19;17.30;99.90
26707;DHT22;14319;49.422;10.934;2023-07-28T01:45:20;17.40;99.90
26707;DHT22;14319;49.422;10.934;2023-07-28T01:47:20;17.40;99.90
26707;DHT22;14319;49.422;10.934;2023-07-28T01:49:21;17.40;99.90
26707;DHT22;14319;49.422;10.934;2023-07-28T01:51:22;17.50;99.90
26707;DHT22;14319;49.422;10.934;2023-07-28T01:53:22;17.40;99.90
26707;DHT22;14319;49.422;10.934;2023-07-28T01:55:23;17.50;99.90
26707;DHT22;14319;49.422;10.934;2023-07-28T01:57:23;17.30;99.90
26707;DHT22;14319;49.422;10.934;2023-07-28T01:59:27;17.30;99.90
26707;DHT22;14319;49.422;10.934;2023-07-28T02:01:28;17.30;99.90
26707;DHT22;14319;49.422;10.934;2023-07-28T02:03:28;17.20;99.90
26707;DHT22;14319;49.422;10.934;2023-07-28T02:05:30;17.30;99.90
26707;DHT22;14319;49.422;10.934;2023-07-28T02:07:30;17.30;99.90
26707;DHT22;14319;49.422;10.934;2023-07-28T02:09:31;17.20;99.90
26707;DHT22;14319;49.422;10.934;2023-07-28T02:11:32;17.30;99.90
26707;DHT22;14319;49.422;10.934;2023-07-28T02:13:32;17.30;99.90
26707;DHT22;14319;49.422;10.934;2023-07-28T02:15:33;17.30;99.90
26707;DHT22;14319;49.422;10.934;2023-07-28T02:17:33;17.40;99.90
26707;DHT22;14319;49.422;10.934;2023-07-28T02:19:34;17.40;99.90
26707;DHT22;14319;49.422;10.934;2023-07-28T02:21:35;17.50;99.90
26707;DHT22;14319;49.422;10.934;2023-07-28T02:23:35;17.40;99.90
26707;DHT22;14319;49.422;10.934;2023-07-28T02:25:38;17.50;99.90
26707;DHT22;14319;49.422;10.934;2023-07-28T02:27:41;17.50;99.90
26707;DHT22;14319;49.422;10.934;2023-07-28T02:29:42;17.40;99.90
26707;DHT22;14319;49.422;10.934;2023-07-28T02:31:43;17.40;99.90
26707;DHT22;14319;49.422;10.934;2023-07-28T02:33:43;17.30;99.90
26707;DHT22;14319;49.422;10.934;2023-07-28T02:35:44;17.30;99.90
26707;DHT22;14319;49.422;10.934;2023-07-28T02:37:45;17.20;99.90
26707;DHT22;14319;49.422;10.934;2023-07-28T02:39:45;17.20;99.90
26707;DHT22;14319;49.422;10.934;2023-07-28T02:41:46;17.10;99.90
26707;DHT22;14319;49.422;10.934;2023-07-28T02:43:47;17.10;99.90
26707;DHT22;14319;49.422;10.934;2023-07-28T02:45:53;17.10;99.90
26707;DHT22;14319;49.422;10.934;2023-07-28T02:47:53;16.90;99.90
26707;DHT22;14319;49.422;10.934;2023-07-28T02:49:54;16.80;99.90
26707;DHT22;14319;49.422;10.934;2023-07-28T02:51:54;17.00;99.90
26707;DHT22;14319;49.422;10.934;2023-07-28T02:53:55;17.00;99.90
26707;DHT22;14319;49.422;10.934;2023-07-28T02:55:56;16.90;99.90
26707;DHT22;14319;49.422;10.934;2023-07-28T02:57:57;16.90;99.90
26707;DHT22;14319;49.422;10.934;2023-07-28T02:59:58;17.00;99.90
26707;DHT22;14319;49.422;10.934;2023-07-28T03:01:59;17.10;99.90
26707;DHT22;14319;49.422;10.934;2023-07-28T03:04:01;17.10;99.90
26707;DHT22;14319;49.422;10.934;2023-07-28T03:06:02;17.20;99.90
26707;DHT22;14319;49.422;10.934;2023-07-28T03:08:03;17.30;99.90
26707;DHT22;14319;49.422;10.934;2023-07-28T03:10:04;17.30;99.90
26707;DHT22;14319;49.422;10.934;2023-07-28T03:12:08;17.40;99.90
26707;DHT22;14319;49.422;10.934;2023-07-28T03:14:09;17.40;99.90
26707;DHT22;14319;49.422;10.934;2023-07-28T03:16:10;17.40;99.90
26707;DHT22;14319;49.422;10.934;2023-07-28T03:18:11;17.40;99.90
26707;DHT22;14319;49.422;10.934;2023-07-28T03:20:11;17.20;99.90
26707;DHT22;14319;49.422;10.934;2023-07-28T03:22:12;17.10;99.90
26707;DHT22;14319;49.422;10.934;2023-07-28T03:24:13;17.20;99.90
26707;DHT22;14319;49.422;10.934;2023-07-28T03:26:13;17.20;99.90
26707;DHT22;14319;49.422;10.934;2023-07-28T03:28:14;17.30;99.90
26707;DHT22;14319;49.422;10.934;2023-07-28T03:30:15;17.30;99.90
26707;DHT22;14319;49.422;10.934;2023-07-28T03:32:15;17.30;99.90
26707;DHT22;14319;49.422;10.934;2023-07-28T03:34:16;17.30;99.90
26707;DHT22;14319;49.422;10.934;2023-07-28T03:36:17;17.30;99.90
26707;DHT22;14319;49.422;10.934;2023-07-28T03:38:19;17.30;99.90
26707;DHT22;14319;49.422;10.934;2023-07-28T03:40:21;17.30;99.90
26707;DHT22;14319;49.422;10.934;2023-07-28T03:42:25;17.30;99.90
26707;DHT22;14319;49.422;10.934;2023-07-28T03:44:26;17.30;99.90
26707;DHT22;14319;49.422;10.934;2023-07-28T03:46:26;17.30;99.90
26707;DHT22;14319;49.422;10.934;2023-07-28T03:48:27;17.40;99.90
26707;DHT22;14319;49.422;10.934;2023-07-28T03:50:28;17.40;99.90
26707;DHT22;14319;49.422;10.934;2023-07-28T03:52:29;17.40;99.90
26707;DHT22;14319;49.422;10.934;2023-07-28T03:54:29;17.40;99.90
26707;DHT22;14319;49.422;10.934;2023-07-28T03:56:30;17.40;99.90
26707;DHT22;14319;49.422;10.934;2023-07-28T03:58:30;17.40;99.90
26707;DHT22;14319;49.422;10.934;2023-07-28T04:00:31;17.40;99.90
26707;DHT22;14319;49.422;10.934;2023-07-28T04:02:32;17.50;99.90
26707;DHT22;14319;49.422;10.934;2023-07-28T04:04:32;17.50;99.90
26707;DHT22;14319;49.422;10.934;2023-07-28T04:06:46;17.50;99.90
26707;DHT22;14319;49.422;10.934;2023-07-28T04:08:47;17.50;99.90
26707;DHT22;14319;49.422;10.934;2023-07-28T04:10:47;17.50;99.90
26707;DHT22;14319;49.422;10.934;2023-07-28T04:12:48;17.40;99.90
26707;DHT22;14319;49.422;10.934;2023-07-28T04:14:49;17.50;99.90
26707;DHT22;14319;49.422;10.934;2023-07-28T04:16:50;17.50;99.90
26707;DHT22;14319;49.422;10.934;2023-07-28T04:18:50;17.40;99.90
26707;DHT22;14319;49.422;10.934;2023-07-28T04:20:51;17.40;99.90
26707;DHT22;14319;49.422;10.934;2023-07-28T04:22:51;17.50;99.90
26707;DHT22;14319;49.422;10.934;2023-07-28T04:24:52;17.50;99.90
26707;DHT22;14319;49.422;10.934;2023-07-28T04:26:54;17.50;99.90
26707;DHT22;14319;49.422;10.934;2023-07-28T04:28:55;17.50;99.90
26707;DHT22;14319;49.422;10.934;2023-07-28T04:30:55;17.50;99.90
26707;DHT22;14319;49.422;10.934;2023-07-28T04:33:24;17.50;99.90
26707;DHT22;14319;49.422;10.934;2023-07-28T04:35:24;17.50;99.90
26707;DHT22;14319;49.422;10.934;2023-07-28T04:37:31;17.50;99.90
26707;DHT22;14319;49.422;10.934;2023-07-28T04:39:35;17.50;99.90
26707;DHT22;14319;49.422;10.934;2023-07-28T04:41:35;17.50;99.90
26707;DHT22;14319;49.422;10.934;2023-07-28T04:43:36;17.50;99.90
26707;DHT22;14319;49.422;10.934;2023-07-28T04:45:37;17.50;99.90
26707;DHT22;14319;49.422;10.934;2023-07-28T04:47:44;17.50;99.90
26707;DHT22;14319;49.422;10.934;2023-07-28T04:49:46;17.60;99.90
26707;DHT22;14319;49.422;10.934;2023-07-28T04:51:46;17.60;99.90
26707;DHT22;14319;49.422;10.934;2023-07-28T04:54:07;17.60;99.90
26707;DHT22;14319;49.422;10.934;2023-07-28T04:56:07;17.50;99.90
26707;DHT22;14319;49.422;10.934;2023-07-28T04:58:08;17.60;99.90
26707;DHT22;14319;49.422;10.934;2023-07-28T05:00:24;17.60;99.90
26707;DHT22;14319;49.422;10.934;2023-07-28T05:02:24;17.60;99.90
26707;DHT22;14319;49.422;10.934;2023-07-28T05:04:25;17.60;99.90
26707;DHT22;14319;49.422;10.934;2023-07-28T05:06:26;17.60;99.90
26707;DHT22;14319;49.422;10.934;2023-07-28T05:08:27;17.60;99.90
26707;DHT22;14319;49.422;10.934;2023-07-28T05:10:28;17.60;99.90
26707;DHT22;14319;49.422;10.934;2023-07-28T05:12:28;17.60;99.90
26707;DHT22;14319;49.422;10.934;2023-07-28T05:14:29;17.60;99.90
26707;DHT22;14319;49.422;10.934;2023-07-28T05:16:30;17.60;99.90
26707;DHT22;14319;49.422;10.934;2023-07-28T05:18:45;17.60;99.90
26707;DHT22;14319;49.422;10.934;2023-07-28T05:21:09;17.60;99.90
26707;DHT22;14319;49.422;10.934;2023-07-28T05:23:10;17.60;99.90
26707;DHT22;14319;49.422;10.934;2023-07-28T05:25:11;17.60;99.90
26707;DHT22;14319;49.422;10.934;2023-07-28T05:27:15;17.70;99.90
26707;DHT22;14319;49.422;10.934;2023-07-28T05:29:18;17.70;99.90
26707;DHT22;14319;49.422;10.934;2023-07-28T05:31:20;17.60;99.90
26707;DHT22;14319;49.422;10.934;2023-07-28T05:33:21;17.40;99.90
26707;DHT22;14319;49.422;10.934;2023-07-28T05:35:23;17.50;99.90
26707;DHT22;14319;49.422;10.934;2023-07-28T05:37:24;17.50;99.90
26707;DHT22;14319;49.422;10.934;2023-07-28T05:39:24;17.60;99.90
26707;DHT22;14319;49.422;10.934;2023-07-28T05:41:26;17.60;99.90
26707;DHT22;14319;49.422;10.934;2023-07-28T05:43:27;17.70;99.90
26707;DHT22;14319;49.422;10.934;2023-07-28T05:45:29;17.60;99.90
26707;DHT22;14319;49.422;10.934;2023-07-28T05:47:30;17.70;99.90
26707;DHT22;14319;49.422;10.934;2023-07-28T05:49:30;17.70;99.90
26707;DHT22;14319;49.422;10.934;2023-07-28T05:51:32;17.70;99.90
26707;DHT22;14319;49.422;10.934;2023-07-28T05:53:32;17.70;99.90
26707;DHT22;14319;49.422;10.934;2023-07-28T05:55:39;17.80;99.90
26707;DHT22;14319;49.422;10.934;2023-07-28T05:57:40;17.70;99.90
26707;DHT22;14319;49.422;10.934;2023-07-28T05:59:43;17.70;99.90
26707;DHT22;14319;49.422;10.934;2023-07-28T06:01:44;17.70;99.90
26707;DHT22;14319;49.422;10.934;2023-07-28T06:04:05;17.80;99.90
26707;DHT22;14319;49.422;10.934;2023-07-28T06:06:13;17.70;99.90
26707;DHT22;14319;49.422;10.934;2023-07-28T06:08:13;17.70;99.90
26707;DHT22;14319;49.422;10.934;2023-07-28T06:10:14;17.70;99.90
26707;DHT22;14319;49.422;10.934;2023-07-28T06:12:14;17.70;99.90
26707;DHT22;14319;49.422;10.934;2023-07-28T06:14:16;17.70;99.90
26707;DHT22;14319;49.422;10.934;2023-07-28T06:16:17;17.80;99.90
26707;DHT22;14319;49.422;10.934;2023-07-28T06:18:19;17.90;99.90
26707;DHT22;14319;49.422;10.934;2023-07-28T06:20:25;17.90;99.90
26707;DHT22;14319;49.422;10.934;2023-07-28T06:22:26;18.00;99.90
26707;DHT22;14319;49.422;10.934;2023-07-28T06:24:26;18.00;99.90
26707;DHT22;14319;49.422;10.934;2023-07-28T06:26:27;18.00;99.90
26707;DHT22;14319;49.422;10.934;2023-07-28T06:28:27;18.10;99.90
26707;DHT22;14319;49.422;10.934;2023-07-28T06:30:28;18.00;99.90
26707;DHT22;14319;49.422;10.934;2023-07-28T06:32:29;18.00;99.90
26707;DHT22;14319;49.422;10.934;2023-07-28T06:34:29;18.10;99.90
26707;DHT22;14319;49.422;10.934;2023-07-28T06:36:30;18.10;99.90
26707;DHT22;14319;49.422;10.934;2023-07-28T06:38:31;18.10;99.90
26707;DHT22;14319;49.422;10.934;2023-07-28T06:40:36;18.10;99.90
26707;DHT22;14319;49.422;10.934;2023-07-28T06:42:36;18.10;99.90
26707;DHT22;14319;49.422;10.934;2023-07-28T06:44:37;18.10;99.90
26707;DHT22;14319;49.422;10.934;2023-07-28T06:46:38;18.10;99.90
26707;DHT22;14319;49.422;10.934;2023-07-28T06:48:40;18.10;99.90
26707;DHT22;14319;49.422;10.934;2023-07-28T06:50:41;18.10;99.90
26707;DHT22;14319;49.422;10.934;2023-07-28T06:52:41;17.90;99.90
26707;DHT22;14319;49.422;10.934;2023-07-28T06:54:42;17.90;99.90
26707;DHT22;14319;49.422;10.934;2023-07-28T06:56:43;17.90;99.90
26707;DHT22;14319;49.422;10.934;2023-07-28T06:58:44;18.00;99.90
26707;DHT22;14319;49.422;10.934;2023-07-28T07:00:44;18.00;99.90
26707;DHT22;14319;49.422;10.934;2023-07-28T07:02:45;18.00;99.90
26707;DHT22;14319;49.422;10.934;2023-07-28T07:04:45;18.10;99.90
26707;DHT22;14319;49.422;10.934;2023-07-28T07:06:46;18.00;99.90
26707;DHT22;14319;49.422;10.934;2023-07-28T07:08:47;18.00;99.90
26707;DHT22;14319;49.422;10.934;2023-07-28T07:10:52;18.00;99.90
26707;DHT22;14319;49.422;10.934;2023-07-28T07:12:52;18.00;99.90
26707;DHT22;14319;49.422;10.934;2023-07-28T07:14:53;18.10;99.90
26707;DHT22;14319;49.422;10.934;2023-07-28T07:16:53;18.00;99.90
26707;DHT22;14319;49.422;10.934;2023-07-28T07:18:54;18.00;99.90
26707;DHT22;14319;49.422;10.934;2023-07-28T07:21:01;17.90;99.90
26707;DHT22;14319;49.422;10.934;2023-07-28T07:23:01;18.10;99.90
26707;DHT22;14319;49.422;10.934;2023-07-28T07:25:03;18.20;99.90
26707;DHT22;14319;49.422;10.934;2023-07-28T07:27:06;18.20;99.90
26707;DHT22;14319;49.422;10.934;2023-07-28T07:29:08;18.20;99.90
26707;DHT22;14319;49.422;10.934;2023-07-28T07:31:13;18.20;99.90
26707;DHT22;14319;49.422;10.934;2023-07-28T07:33:14;18.20;99.90
26707;DHT22;14319;49.422;10.934;2023-07-28T07:35:15;18.20;99.90
26707;DHT22;14319;49.422;10.934;2023-07-28T07:37:15;18.30;99.90
26707;DHT22;14319;49.422;10.934;2023-07-28T07:39:16;18.20;99.90
26707;DHT22;14319;49.422;10.934;2023-07-28T07:41:21;18.20;99.90
26707;DHT22;14319;49.422;10.934;2023-07-28T07:43:23;18.30;99.90
26707;DHT22;14319;49.422;10.934;2023-07-28T07:45:23;18.30;99.90
26707;DHT22;14319;49.422;10.934;2023-07-28T07:47:24;18.30;99.90
26707;DHT22;14319;49.422;10.934;2023-07-28T07:49:24;18.20;99.90
26707;DHT22;14319;49.422;10.934;2023-07-28T07:51:25;18.40;99.90
26707;DHT22;14319;49.422;10.934;2023-07-28T07:53:26;18.40;99.90
26707;DHT22;14319;49.422;10.934;2023-07-28T07:55:27;18.60;99.90
26707;DHT22;14319;49.422;10.934;2023-07-28T07:57:28;18.60;99.90
26707;DHT22;14319;49.422;10.934;2023-07-28T07:59:28;18.70;99.90
26707;DHT22;14319;49.422;10.934;2023-07-28T08:01:32;18.70;99.90
26707;DHT22;14319;49.422;10.934;2023-07-28T08:03:32;18.80;99.90
26707;DHT22;14319;49.422;10.934;2023-07-28T08:05:33;18.80;99.90
26707;DHT22;14319;49.422;10.934;2023-07-28T08:07:34;18.80;99.90
26707;DHT22;14319;49.422;10.934;2023-07-28T08:09:35;18.90;99.90
26707;DHT22;14319;49.422;10.934;2023-07-28T08:11:35;19.00;99.90
26707;DHT22;14319;49.422;10.934;2023-07-28T08:13:36;19.00;99.90
26707;DHT22;14319;49.422;10.934;2023-07-28T08:15:36;19.00;99.90
26707;DHT22;14319;49.422;10.934;2023-07-28T08:17:37;19.10;99.90
26707;DHT22;14319;49.422;10.934;2023-07-28T08:19:38;19.00;99.90
26707;DHT22;14319;49.422;10.934;2023-07-28T08:21:38;18.80;99.90
26707;DHT22;14319;49.422;10.934;2023-07-28T08:23:39;19.00;99.90
26707;DHT22;14319;49.422;10.934;2023-07-28T08:25:40;19.00;99.90
26707;DHT22;14319;49.422;10.934;2023-07-28T08:27:40;19.00;99.90
26707;DHT22;14319;49.422;10.934;2023-07-28T08:29:41;19.10;99.90
26707;DHT22;14319;49.422;10.934;2023-07-28T08:31:41;19.20;99.90
26707;DHT22;14319;49.422;10.934;2023-07-28T08:33:42;19.30;99.90
26707;DHT22;14319;49.422;10.934;2023-07-28T08:35:43;19.30;99.90
26707;DHT22;14319;49.422;10.934;2023-07-28T08:37:43;19.30;99.90
26707;DHT22;14319;49.422;10.934;2023-07-28T08:39:44;19.30;99.90
26707;DHT22;14319;49.422;10.934;2023-07-28T08:41:45;19.30;99.90
26707;DHT22;14319;49.422;10.934;2023-07-28T08:43:45;19.30;99.90
26707;DHT22;14319;49.422;10.934;2023-07-28T08:45:46;19.40;99.90
26707;DHT22;14319;49.422;10.934;2023-07-28T08:47:47;19.40;99.90
26707;DHT22;14319;49.422;10.934;2023-07-28T08:49:47;19.30;99.90
26707;DHT22;14319;49.422;10.934;2023-07-28T08:51:51;19.30;99.90
26707;DHT22;14319;49.422;10.934;2023-07-28T08:53:52;19.30;99.90
26707;DHT22;14319;49.422;10.934;2023-07-28T08:55:53;19.40;99.90
26707;DHT22;14319;49.422;10.934;2023-07-28T08:57:54;19.50;99.90
26707;DHT22;14319;49.422;10.934;2023-07-28T08:59:55;19.50;99.90
26707;DHT22;14319;49.422;10.934;2023-07-28T09:01:57;19.60;99.90
26707;DHT22;14319;49.422;10.934;2023-07-28T09:04:01;19.60;99.90
26707;DHT22;14319;49.422;10.934;2023-07-28T09:06:02;19.60;99.90
26707;DHT22;14319;49.422;10.934;2023-07-28T09:08:03;19.60;99.90
26707;DHT22;14319;49.422;10.934;2023-07-28T09:10:05;19.70;99.90
26707;DHT22;14319;49.422;10.934;2023-07-28T09:12:07;19.70;99.90
26707;DHT22;14319;49.422;10.934;2023-07-28T09:14:11;19.80;99.90
26707;DHT22;14319;49.422;10.934;2023-07-28T09:16:18;19.80;99.90
26707;DHT22;14319;49.422;10.934;2023-07-28T09:18:19;19.80;99.20
26707;DHT22;14319;49.422;10.934;2023-07-28T09:20:19;19.70;99.90
26707;DHT22;14319;49.422;10.934;2023-07-28T09:22:20;19.60;99.00
26707;DHT22;14319;49.422;10.934;2023-07-28T09:24:21;19.70;99.90
26707;DHT22;14319;49.422;10.934;2023-07-28T09:26:22;19.70;99.90
26707;DHT22;14319;49.422;10.934;2023-07-28T09:28:23;19.80;99.90
26707;DHT22;14319;49.422;10.934;2023-07-28T09:30:49;19.80;99.90
26707;DHT22;14319;49.422;10.934;2023-07-28T09:32:54;19.70;99.90
26707;DHT22;14319;49.422;10.934;2023-07-28T09:35:11;19.80;99.90
26707;DHT22;14319;49.422;10.934;2023-07-28T09:37:14;19.70;99.90
26707;DHT22;14319;49.422;10.934;2023-07-28T09:39:15;19.60;99.90
26707;DHT22;14319;49.422;10.934;2023-07-28T09:41:16;19.50;99.90
26707;DHT22;14319;49.422;10.934;2023-07-28T09:43:18;19.50;99.90
26707;DHT22;14319;49.422;10.934;2023-07-28T09:45:18;19.50;99.90
26707;DHT22;14319;49.422;10.934;2023-07-28T09:47:19;19.60;99.90
26707;DHT22;14319;49.422;10.934;2023-07-28T09:49:24;19.50;99.90
26707;DHT22;14319;49.422;10.934;2023-07-28T09:51:30;19.50;99.90
26707;DHT22;14319;49.422;10.934;2023-07-28T09:53:36;19.60;99.90
26707;DHT22;14319;49.422;10.934;2023-07-28T09:55:40;19.80;99.90
26707;DHT22;14319;49.422;10.934;2023-07-28T09:58:04;19.80;99.90
26707;DHT22;14319;49.422;10.934;2023-07-28T10:00:08;19.70;99.30
26707;DHT22;14319;49.422;10.934;2023-07-28T10:02:12;19.80;99.90
26707;DHT22;14319;49.422;10.934;2023-07-28T10:04:13;20.00;99.90
26707;DHT22;14319;49.422;10.934;2023-07-28T10:06:16;19.90;99.90
26707;DHT22;14319;49.422;10.934;2023-07-28T10:08:17;19.80;99.20
26707;DHT22;14319;49.422;10.934;2023-07-28T10:10:18;19.80;99.90
26707;DHT22;14319;49.422;10.934;2023-07-28T10:12:24;19.80;99.90
26707;DHT22;14319;49.422;10.934;2023-07-28T10:14:26;19.80;98.90
26707;DHT22;14319;49.422;10.934;2023-07-28T10:16:38;19.90;99.70
26707;DHT22;14319;49.422;10.934;2023-07-28T10:18:39;19.80;99.80
26707;DHT22;14319;49.422;10.934;2023-07-28T10:20:42;19.70;99.90
26707;DHT22;14319;49.422;10.934;2023-07-28T10:22:44;19.70;99.90
26707;DHT22;14319;49.422;10.934;2023-07-28T10:24:56;19.80;99.90
26707;DHT22;14319;49.422;10.934;2023-07-28T10:26:58;19.90;99.90
26707;DHT22;14319;49.422;10.934;2023-07-28T10:29:12;20.00;99.90
26707;DHT22;14319;49.422;10.934;2023-07-28T10:31:29;20.00;99.80
26707;DHT22;14319;49.422;10.934;2023-07-28T10:33:41;20.10;98.80
26707;DHT22;14319;49.422;10.934;2023-07-28T10:35:47;20.10;97.60
26707;DHT22;14319;49.422;10.934;2023-07-28T10:37:48;20.20;98.20
26707;DHT22;14319;49.422;10.934;2023-07-28T10:39:49;20.30;99.00
26707;DHT22;14319;49.422;10.934;2023-07-28T10:42:09;20.20;98.40
26707;DHT22;14319;49.422;10.934;2023-07-28T10:44:09;20.20;97.30
26707;DHT22;14319;49.422;10.934;2023-07-28T10:46:15;20.30;97.50
26707;DHT22;14319;49.422;10.934;2023-07-28T10:48:16;20.30;96.40
26707;DHT22;14319;49.422;10.934;2023-07-28T10:50:16;20.30;97.30
26707;DHT22;14319;49.422;10.934;2023-07-28T10:52:17;20.50;97.00
26707;DHT22;14319;49.422;10.934;2023-07-28T10:54:17;20.50;95.40
26707;DHT22;14319;49.422;10.934;2023-07-28T10:56:20;20.50;93.40
26707;DHT22;14319;49.422;10.934;2023-07-28T10:58:22;20.50;94.30
26707;DHT22;14319;49.422;10.934;2023-07-28T11:00:23;20.60;94.40
26707;DHT22;14319;49.422;10.934;2023-07-28T11:02:23;20.70;93.30
26707;DHT22;14319;49.422;10.934;2023-07-28T11:04:24;20.80;94.20
26707;DHT22;14319;49.422;10.934;2023-07-28T11:06:25;20.80;96.30
26707;DHT22;14319;49.422;10.934;2023-07-28T11:08:26;20.80;95.00
26707;DHT22;14319;49.422;10.934;2023-07-28T11:10:31;20.90;95.40
26707;DHT22;14319;49.422;10.934;2023-07-28T11:12:32;20.90;95.90
26707;DHT22;14319;49.422;10.934;2023-07-28T11:14:33;20.90;93.30
26707;DHT22;14319;49.422;10.934;2023-07-28T11:16:36;20.90;94.40
26707;DHT22;14319;49.422;10.934;2023-07-28T11:18:37;20.90;93.20
26707;DHT22;14319;49.422;10.934;2023-07-28T11:20:37;20.80;93.60
26707;DHT22;14319;49.422;10.934;2023-07-28T11:22:38;20.90;92.90
26707;DHT22;14319;49.422;10.934;2023-07-28T11:24:39;21.00;94.60
26707;DHT22;14319;49.422;10.934;2023-07-28T11:26:40;20.90;92.30
26707;DHT22;14319;49.422;10.934;2023-07-28T11:28:40;21.00;94.00
26707;DHT22;14319;49.422;10.934;2023-07-28T11:30:41;21.20;93.00
26707;DHT22;14319;49.422;10.934;2023-07-28T11:32:46;21.30;91.60
26707;DHT22;14319;49.422;10.934;2023-07-28T11:34:48;21.20;88.70
26707;DHT22;14319;49.422;10.934;2023-07-28T11:36:49;21.30;90.70
26707;DHT22;14319;49.422;10.934;2023-07-28T11:38:51;21.30;90.50
26707;DHT22;14319;49.422;10.934;2023-07-28T11:40:52;21.20;89.50
26707;DHT22;14319;49.422;10.934;2023-07-28T11:42:54;21.10;90.20
26707;DHT22;14319;49.422;10.934;2023-07-28T11:44:55;21.20;90.40
26707;DHT22;14319;49.422;10.934;2023-07-28T11:46:56;21.10;90.20
26707;DHT22;14319;49.422;10.934;2023-07-28T11:49:16;21.10;88.70
26707;DHT22;14319;49.422;10.934;2023-07-28T11:51:20;21.00;87.90
26707;DHT22;14319;49.422;10.934;2023-07-28T11:53:20;21.00;87.00
26707;DHT22;14319;49.422;10.934;2023-07-28T11:55:23;21.00;88.20
26707;DHT22;14319;49.422;10.934;2023-07-28T11:57:25;21.00;88.70
26707;DHT22;14319;49.422;10.934;2023-07-28T11:59:26;21.00;89.00
26707;DHT22;14319;49.422;10.934;2023-07-28T12:01:27;21.00;90.00
26707;DHT22;14319;49.422;10.934;2023-07-28T12:03:30;21.20;91.10
26707;DHT22;14319;49.422;10.934;2023-07-28T12:05:32;21.30;88.80
26707;DHT22;14319;49.422;10.934;2023-07-28T12:07:34;21.20;88.00
26707;DHT22;14319;49.422;10.934;2023-07-28T12:12:20;21.40;88.50
26707;DHT22;14319;49.422;10.934;2023-07-28T12:14:34;21.50;89.20
26707;DHT22;14319;49.422;10.934;2023-07-28T12:16:46;21.50;87.60
26707;DHT22;14319;49.422;10.934;2023-07-28T12:18:48;21.60;86.50
26707;DHT22;14319;49.422;10.934;2023-07-28T12:20:51;21.40;86.60
26707;DHT22;14319;49.422;10.934;2023-07-28T12:22:52;21.30;87.30
26707;DHT22;14319;49.422;10.934;2023-07-28T12:24:56;21.20;90.10
26707;DHT22;14319;49.422;10.934;2023-07-28T12:26:56;21.20;90.50
26707;DHT22;14319;49.422;10.934;2023-07-28T12:28:57;21.30;91.70
26707;DHT22;14319;49.422;10.934;2023-07-28T12:30:58;21.30;92.90
26707;DHT22;14319;49.422;10.934;2023-07-28T12:32:59;21.40;92.20
26707;DHT22;14319;49.422;10.934;2023-07-28T12:35:00;21.40;90.40
26707;DHT22;14319;49.422;10.934;2023-07-28T12:37:01;21.50;92.10
26707;DHT22;14319;49.422;10.934;2023-07-28T12:39:02;21.50;91.10
26707;DHT22;14319;49.422;10.934;2023-07-28T12:41:03;21.70;90.10
26707;DHT22;14319;49.422;10.934;2023-07-28T12:43:04;21.80;89.70
26707;DHT22;14319;49.422;10.934;2023-07-28T12:45:05;21.80;88.50
26707;DHT22;14319;49.422;10.934;2023-07-28T12:47:07;21.80;87.60